sensor_id;sensor_type;location;lat;lon;timestamp;P1;durP1;ratioP1;P2;durP2;ratioP2
22240;SDS011;11289;52.524;13.694;2023-06-22T00:01:59;16.27;;;14.68;;
22240;SDS011;11289;52.524;13.694;2023-06-22T00:04:25;17.50;;;15.75;;
22240;SDS011;11289;52.524;13.694;2023-06-22T00:06:51;17.20;;;15.35;;
22240;SDS011;11289;52.524;13.694;2023-06-22T00:09:17;17.02;;;15.32;;
22240;SDS011;11289;52.524;13.694;2023-06-22T00:11:43;16.67;;;15.07;;
22240;SDS011;11289;52.524;13.694;2023-06-22T00:14:09;16.02;;;14.30;;
22240;SDS011;11289;52.524;13.694;2023-06-22T00:16:35;16.27;;;14.75;;
22240;SDS011;11289;52.524;13.694;2023-06-22T00:19:01;16.77;;;14.98;;
22240;SDS011;11289;52.524;13.694;2023-06-22T00:21:28;18.00;;;16.20;;
22240;SDS011;11289;52.524;13.694;2023-06-22T00:23:54;17.50;;;15.43;;
22240;SDS011;11289;52.524;13.694;2023-06-22T00:26:21;16.30;;;14.60;;
22240;SDS011;11289;52.524;13.694;2023-06-22T00:28:47;15.90;;;14.25;;
22240;SDS011;11289;52.524;13.694;2023-06-22T00:31:13;17.35;;;15.55;;
22240;SDS011;11289;52.524;13.694;2023-06-22T00:33:39;17.25;;;15.40;;
22240;SDS011;11289;52.524;13.694;2023-06-22T00:36:05;17.60;;;15.80;;
22240;SDS011;11289;52.524;13.694;2023-06-22T00:38:33;16.13;;;14.43;;
22240;SDS011;11289;52.524;13.694;2023-06-22T00:41:00;15.63;;;14.13;;
22240;SDS011;11289;52.524;13.694;2023-06-22T00:43:26;18.27;;;16.25;;
22240;SDS011;11289;52.524;13.694;2023-06-22T00:45:52;16.98;;;15.18;;
22240;SDS011;11289;52.524;13.694;2023-06-22T00:48:18;16.13;;;14.52;;
22240;SDS011;11289;52.524;13.694;2023-06-22T00:50:44;16.65;;;14.85;;
22240;SDS011;11289;52.524;13.694;2023-06-22T00:53:10;16.70;;;14.73;;
22240;SDS011;11289;52.524;13.694;2023-06-22T00:55:38;16.67;;;14.70;;
22240;SDS011;11289;52.524;13.694;2023-06-22T00:58:08;16.73;;;14.98;;
22240;SDS011;11289;52.524;13.694;2023-06-22T01:00:36;16.17;;;14.55;;
22240;SDS011;11289;52.524;13.694;2023-06-22T01:03:03;16.60;;;14.88;;
22240;SDS011;11289;52.524;13.694;2023-06-22T01:05:29;16.38;;;14.77;;
22240;SDS011;11289;52.524;13.694;2023-06-22T01:08:03;16.65;;;14.95;;
22240;SDS011;11289;52.524;13.694;2023-06-22T01:16:26;17.33;;;15.63;;
22240;SDS011;11289;52.524;13.694;2023-06-22T01:18:55;18.67;;;15.55;;
22240;SDS011;11289;52.524;13.694;2023-06-22T01:21:23;16.85;;;14.80;;
22240;SDS011;11289;52.524;13.694;2023-06-22T01:29:36;18.48;;;15.73;;
22240;SDS011;11289;52.524;13.694;2023-06-22T01:32:04;18.02;;;15.25;;
22240;SDS011;11289;52.524;13.694;2023-06-22T01:34:32;17.63;;;15.07;;
22240;SDS011;11289;52.524;13.694;2023-06-22T01:36:59;17.05;;;15.18;;
22240;SDS011;11289;52.524;13.694;2023-06-22T01:39:26;16.98;;;15.25;;
22240;SDS011;11289;52.524;13.694;2023-06-22T01:41:53;15.48;;;13.98;;
22240;SDS011;11289;52.524;13.694;2023-06-22T01:44:19;16.75;;;15.02;;
22240;SDS011;11289;52.524;13.694;2023-06-22T01:46:47;16.15;;;14.45;;
22240;SDS011;11289;52.524;13.694;2023-06-22T01:49:14;18.30;;;16.42;;
22240;SDS011;11289;52.524;13.694;2023-06-22T01:51:41;16.73;;;15.02;;
22240;SDS011;11289;52.524;13.694;2023-06-22T01:54:07;17.95;;;16.05;;
22240;SDS011;11289;52.524;13.694;2023-06-22T01:56:34;18.02;;;16.27;;
22240;SDS011;11289;52.524;13.694;2023-06-22T02:01:36;16.70;;;14.60;;
22240;SDS011;11289;52.524;13.694;2023-06-22T02:04:12;17.50;;;15.48;;
22240;SDS011;11289;52.524;13.694;2023-06-22T02:06:45;17.98;;;16.17;;
22240;SDS011;11289;52.524;13.694;2023-06-22T02:09:15;17.70;;;15.82;;
22240;SDS011;11289;52.524;13.694;2023-06-22T02:11:42;17.25;;;15.45;;
22240;SDS011;11289;52.524;13.694;2023-06-22T02:14:11;18.50;;;16.52;;
22240;SDS011;11289;52.524;13.694;2023-06-22T02:16:38;18.95;;;16.83;;
22240;SDS011;11289;52.524;13.694;2023-06-22T02:19:06;17.58;;;15.88;;
22240;SDS011;11289;52.524;13.694;2023-06-22T02:21:32;18.88;;;16.88;;
22240;SDS011;11289;52.524;13.694;2023-06-22T02:23:58;19.65;;;16.33;;
22240;SDS011;11289;52.524;13.694;2023-06-22T02:26:24;19.33;;;16.15;;
22240;SDS011;11289;52.524;13.694;2023-06-22T02:28:52;17.75;;;16.02;;
22240;SDS011;11289;52.524;13.694;2023-06-22T02:31:18;17.67;;;15.77;;
22240;SDS011;11289;52.524;13.694;2023-06-22T02:33:45;18.13;;;16.23;;
22240;SDS011;11289;52.524;13.694;2023-06-22T02:36:11;19.38;;;17.45;;
22240;SDS011;11289;52.524;13.694;2023-06-22T02:38:40;19.35;;;16.95;;
22240;SDS011;11289;52.524;13.694;2023-06-22T02:41:11;20.17;;;16.90;;
22240;SDS011;11289;52.524;13.694;2023-06-22T02:43:38;18.75;;;16.30;;
22240;SDS011;11289;52.524;13.694;2023-06-22T02:46:04;21.13;;;17.75;;
22240;SDS011;11289;52.524;13.694;2023-06-22T02:48:30;19.50;;;17.50;;
22240;SDS011;11289;52.524;13.694;2023-06-22T02:50:56;18.73;;;16.73;;
22240;SDS011;11289;52.524;13.694;2023-06-22T02:53:22;19.00;;;17.10;;
22240;SDS011;11289;52.524;13.694;2023-06-22T02:55:48;20.10;;;16.95;;
22240;SDS011;11289;52.524;13.694;2023-06-22T02:58:14;18.65;;;16.63;;
22240;SDS011;11289;52.524;13.694;2023-06-22T03:00:40;19.27;;;17.17;;
22240;SDS011;11289;52.524;13.694;2023-06-22T03:03:06;19.15;;;17.05;;
22240;SDS011;11289;52.524;13.694;2023-06-22T03:05:32;20.48;;;17.05;;
22240;SDS011;11289;52.524;13.694;2023-06-22T03:08:00;18.98;;;17.13;;
22240;SDS011;11289;52.524;13.694;2023-06-22T03:10:26;19.98;;;18.05;;
22240;SDS011;11289;52.524;13.694;2023-06-22T03:12:52;21.17;;;16.70;;
22240;SDS011;11289;52.524;13.694;2023-06-22T03:15:18;19.75;;;17.63;;
22240;SDS011;11289;52.524;13.694;2023-06-22T03:17:44;19.73;;;17.73;;
22240;SDS011;11289;52.524;13.694;2023-06-22T03:20:11;22.30;;;18.88;;
22240;SDS011;11289;52.524;13.694;2023-06-22T03:22:40;21.55;;;18.38;;
22240;SDS011;11289;52.524;13.694;2023-06-22T03:25:07;18.75;;;17.05;;
22240;SDS011;11289;52.524;13.694;2023-06-22T03:27:39;21.85;;;17.92;;
22240;SDS011;11289;52.524;13.694;2023-06-22T03:30:06;20.55;;;18.35;;
22240;SDS011;11289;52.524;13.694;2023-06-22T03:32:35;20.83;;;17.40;;
22240;SDS011;11289;52.524;13.694;2023-06-22T03:35:01;19.92;;;17.67;;
22240;SDS011;11289;52.524;13.694;2023-06-22T03:37:28;21.40;;;19.10;;
22240;SDS011;11289;52.524;13.694;2023-06-22T03:39:54;19.75;;;17.60;;
22240;SDS011;11289;52.524;13.694;2023-06-22T03:42:21;20.80;;;17.17;;
22240;SDS011;11289;52.524;13.694;2023-06-22T03:44:47;21.95;;;19.35;;
22240;SDS011;11289;52.524;13.694;2023-06-22T03:47:13;19.55;;;16.92;;
22240;SDS011;11289;52.524;13.694;2023-06-22T03:49:39;20.05;;;17.77;;
22240;SDS011;11289;52.524;13.694;2023-06-22T03:52:05;19.15;;;16.95;;
22240;SDS011;11289;52.524;13.694;2023-06-22T03:54:31;18.45;;;16.52;;
22240;SDS011;11289;52.524;13.694;2023-06-22T03:56:57;19.50;;;17.40;;
22240;SDS011;11289;52.524;13.694;2023-06-22T03:59:24;19.02;;;17.08;;
22240;SDS011;11289;52.524;13.694;2023-06-22T04:01:50;19.05;;;15.88;;
22240;SDS011;11289;52.524;13.694;2023-06-22T04:04:19;17.73;;;15.68;;
22240;SDS011;11289;52.524;13.694;2023-06-22T04:06:45;18.17;;;16.38;;
22240;SDS011;11289;52.524;13.694;2023-06-22T04:09:11;21.85;;;16.30;;
22240;SDS011;11289;52.524;13.694;2023-06-22T04:11:37;16.13;;;13.68;;
22240;SDS011;11289;52.524;13.694;2023-06-22T04:14:03;17.50;;;15.70;;
22240;SDS011;11289;52.524;13.694;2023-06-22T04:16:29;15.95;;;14.18;;
22240;SDS011;11289;52.524;13.694;2023-06-22T04:18:55;16.55;;;14.20;;
22240;SDS011;11289;52.524;13.694;2023-06-22T04:21:21;16.70;;;14.32;;
22240;SDS011;11289;52.524;13.694;2023-06-22T04:23:47;16.40;;;13.50;;
22240;SDS011;11289;52.524;13.694;2023-06-22T04:26:13;16.65;;;14.85;;
22240;SDS011;11289;52.524;13.694;2023-06-22T04:28:40;14.30;;;12.73;;
22240;SDS011;11289;52.524;13.694;2023-06-22T04:31:06;15.32;;;13.23;;
22240;SDS011;11289;52.524;13.694;2023-06-22T04:33:33;14.90;;;12.48;;
22240;SDS011;11289;52.524;13.694;2023-06-22T04:35:59;13.95;;;12.45;;
22240;SDS011;11289;52.524;13.694;2023-06-22T04:38:28;14.00;;;11.88;;
22240;SDS011;11289;52.524;13.694;2023-06-22T04:40:54;12.70;;;11.30;;
22240;SDS011;11289;52.524;13.694;2023-06-22T04:43:20;11.98;;;10.65;;
22240;SDS011;11289;52.524;13.694;2023-06-22T04:45:46;11.98;;;10.35;;
22240;SDS011;11289;52.524;13.694;2023-06-22T04:48:17;11.30;;;9.48;;
22240;SDS011;11289;52.524;13.694;2023-06-22T04:50:43;15.35;;;9.68;;
22240;SDS011;11289;52.524;13.694;2023-06-22T04:53:09;11.63;;;9.98;;
22240;SDS011;11289;52.524;13.694;2023-06-22T04:55:38;10.88;;;9.13;;
22240;SDS011;11289;52.524;13.694;2023-06-22T04:58:07;10.65;;;8.48;;
22240;SDS011;11289;52.524;13.694;2023-06-22T05:00:33;9.13;;;8.18;;
22240;SDS011;11289;52.524;13.694;2023-06-22T05:03:01;10.85;;;8.65;;
22240;SDS011;11289;52.524;13.694;2023-06-22T05:05:29;10.25;;;8.55;;
22240;SDS011;11289;52.524;13.694;2023-06-22T05:07:56;13.55;;;8.52;;
22240;SDS011;11289;52.524;13.694;2023-06-22T05:10:25;9.88;;;7.72;;
22240;SDS011;11289;52.524;13.694;2023-06-22T05:12:51;8.52;;;7.57;;
22240;SDS011;11289;52.524;13.694;2023-06-22T05:15:17;8.57;;;6.70;;
22240;SDS011;11289;52.524;13.694;2023-06-22T05:17:45;9.45;;;6.97;;
22240;SDS011;11289;52.524;13.694;2023-06-22T05:20:11;9.23;;;6.45;;
22240;SDS011;11289;52.524;13.694;2023-06-22T05:22:38;8.95;;;6.57;;
22240;SDS011;11289;52.524;13.694;2023-06-22T05:25:07;8.25;;;6.80;;
22240;SDS011;11289;52.524;13.694;2023-06-22T05:27:35;10.02;;;6.90;;
22240;SDS011;11289;52.524;13.694;2023-06-22T05:30:05;6.65;;;5.65;;
22240;SDS011;11289;52.524;13.694;2023-06-22T05:32:32;6.60;;;5.88;;
22240;SDS011;11289;52.524;13.694;2023-06-22T05:34:59;7.22;;;5.60;;
22240;SDS011;11289;52.524;13.694;2023-06-22T05:37:25;7.63;;;5.85;;
22240;SDS011;11289;52.524;13.694;2023-06-22T05:39:51;8.40;;;6.35;;
22240;SDS011;11289;52.524;13.694;2023-06-22T05:42:18;6.47;;;5.53;;
22240;SDS011;11289;52.524;13.694;2023-06-22T05:44:43;7.05;;;5.82;;
22240;SDS011;11289;52.524;13.694;2023-06-22T05:47:10;6.80;;;5.85;;
22240;SDS011;11289;52.524;13.694;2023-06-22T05:49:35;6.80;;;5.20;;
22240;SDS011;11289;52.524;13.694;2023-06-22T05:52:02;6.55;;;5.30;;
22240;SDS011;11289;52.524;13.694;2023-06-22T05:54:28;7.50;;;5.43;;
22240;SDS011;11289;52.524;13.694;2023-06-22T05:56:54;5.63;;;4.90;;
22240;SDS011;11289;52.524;13.694;2023-06-22T05:59:20;6.65;;;4.13;;
22240;SDS011;11289;52.524;13.694;2023-06-22T06:01:46;6.60;;;4.50;;
22240;SDS011;11289;52.524;13.694;2023-06-22T06:04:16;8.45;;;5.18;;
22240;SDS011;11289;52.524;13.694;2023-06-22T06:06:45;8.65;;;5.15;;
22240;SDS011;11289;52.524;13.694;2023-06-22T06:09:13;10.25;;;4.72;;
22240;SDS011;11289;52.524;13.694;2023-06-22T06:11:41;5.90;;;5.28;;
22240;SDS011;11289;52.524;13.694;2023-06-22T06:14:08;6.93;;;4.30;;
22240;SDS011;11289;52.524;13.694;2023-06-22T06:16:33;4.55;;;4.13;;
22240;SDS011;11289;52.524;13.694;2023-06-22T06:19:00;6.57;;;4.75;;
22240;SDS011;11289;52.524;13.694;2023-06-22T06:21:25;7.93;;;4.28;;
22240;SDS011;11289;52.524;13.694;2023-06-22T06:23:51;5.20;;;4.10;;
22240;SDS011;11289;52.524;13.694;2023-06-22T06:26:18;5.65;;;3.40;;
22240;SDS011;11289;52.524;13.694;2023-06-22T06:28:53;4.47;;;3.47;;
22240;SDS011;11289;52.524;13.694;2023-06-22T06:31:20;7.90;;;4.35;;
22240;SDS011;11289;52.524;13.694;2023-06-22T06:33:46;5.57;;;3.47;;
22240;SDS011;11289;52.524;13.694;2023-06-22T06:36:12;8.50;;;4.32;;
22240;SDS011;11289;52.524;13.694;2023-06-22T06:38:38;6.70;;;3.63;;
22240;SDS011;11289;52.524;13.694;2023-06-22T06:41:22;5.38;;;3.97;;
22240;SDS011;11289;52.524;13.694;2023-06-22T06:43:50;5.68;;;3.88;;
22240;SDS011;11289;52.524;13.694;2023-06-22T06:46:16;4.28;;;3.33;;
22240;SDS011;11289;52.524;13.694;2023-06-22T06:49:00;4.13;;;2.88;;
22240;SDS011;11289;52.524;13.694;2023-06-22T06:52:04;4.45;;;2.85;;
22240;SDS011;11289;52.524;13.694;2023-06-22T06:54:48;4.13;;;3.17;;
22240;SDS011;11289;52.524;13.694;2023-06-22T06:57:14;2.95;;;2.40;;
22240;SDS011;11289;52.524;13.694;2023-06-22T06:59:59;3.45;;;2.83;;
22240;SDS011;11289;52.524;13.694;2023-06-22T07:02:26;4.90;;;3.20;;
22240;SDS011;11289;52.524;13.694;2023-06-22T07:05:13;4.55;;;3.05;;
22240;SDS011;11289;52.524;13.694;2023-06-22T07:07:40;3.80;;;3.25;;
22240;SDS011;11289;52.524;13.694;2023-06-22T07:10:07;3.67;;;2.80;;
22240;SDS011;11289;52.524;13.694;2023-06-22T07:12:33;4.53;;;2.78;;
22240;SDS011;11289;52.524;13.694;2023-06-22T07:15:03;5.32;;;3.10;;
22240;SDS011;11289;52.524;13.694;2023-06-22T07:17:31;3.83;;;2.97;;
22240;SDS011;11289;52.524;13.694;2023-06-22T07:19:57;4.90;;;2.88;;
22240;SDS011;11289;52.524;13.694;2023-06-22T07:22:24;3.88;;;2.88;;
22240;SDS011;11289;52.524;13.694;2023-06-22T07:24:50;3.50;;;2.47;;
22240;SDS011;11289;52.524;13.694;2023-06-22T07:27:16;3.70;;;2.75;;
22240;SDS011;11289;52.524;13.694;2023-06-22T07:29:45;4.15;;;3.05;;
22240;SDS011;11289;52.524;13.694;2023-06-22T07:32:11;5.30;;;2.60;;
22240;SDS011;11289;52.524;13.694;2023-06-22T07:34:37;5.40;;;3.10;;
22240;SDS011;11289;52.524;13.694;2023-06-22T07:37:04;5.07;;;3.53;;
22240;SDS011;11289;52.524;13.694;2023-06-22T07:39:30;5.20;;;3.40;;
22240;SDS011;11289;52.524;13.694;2023-06-22T07:41:56;7.32;;;3.97;;
22240;SDS011;11289;52.524;13.694;2023-06-22T07:44:22;3.97;;;2.95;;
22240;SDS011;11289;52.524;13.694;2023-06-22T07:46:48;5.55;;;3.85;;
22240;SDS011;11289;52.524;13.694;2023-06-22T07:49:14;7.05;;;3.90;;
22240;SDS011;11289;52.524;13.694;2023-06-22T07:51:58;3.88;;;3.03;;
22240;SDS011;11289;52.524;13.694;2023-06-22T07:54:24;5.22;;;3.17;;
22240;SDS011;11289;52.524;13.694;2023-06-22T07:56:50;3.53;;;2.92;;
22240;SDS011;11289;52.524;13.694;2023-06-22T07:59:16;3.42;;;2.70;;
22240;SDS011;11289;52.524;13.694;2023-06-22T08:01:42;4.55;;;2.40;;
22240;SDS011;11289;52.524;13.694;2023-06-22T08:04:08;3.38;;;2.67;;
22240;SDS011;11289;52.524;13.694;2023-06-22T08:06:34;3.97;;;2.28;;
22240;SDS011;11289;52.524;13.694;2023-06-22T08:09:00;5.13;;;2.70;;
22240;SDS011;11289;52.524;13.694;2023-06-22T08:11:26;4.28;;;2.95;;
22240;SDS011;11289;52.524;13.694;2023-06-22T08:13:52;2.90;;;2.03;;
22240;SDS011;11289;52.524;13.694;2023-06-22T08:16:21;3.55;;;2.58;;
22240;SDS011;11289;52.524;13.694;2023-06-22T08:18:47;5.15;;;2.83;;
22240;SDS011;11289;52.524;13.694;2023-06-22T08:21:13;4.28;;;2.00;;
22240;SDS011;11289;52.524;13.694;2023-06-22T08:23:39;5.85;;;3.15;;
22240;SDS011;11289;52.524;13.694;2023-06-22T08:26:05;5.07;;;2.92;;
22240;SDS011;11289;52.524;13.694;2023-06-22T08:28:31;5.05;;;3.05;;
22240;SDS011;11289;52.524;13.694;2023-06-22T08:31:00;3.72;;;2.85;;
22240;SDS011;11289;52.524;13.694;2023-06-22T08:33:31;4.00;;;3.08;;
22240;SDS011;11289;52.524;13.694;2023-06-22T08:35:58;4.13;;;2.97;;
22240;SDS011;11289;52.524;13.694;2023-06-22T08:38:24;3.40;;;2.63;;
22240;SDS011;11289;52.524;13.694;2023-06-22T08:40:50;4.30;;;3.00;;
22240;SDS011;11289;52.524;13.694;2023-06-22T08:43:16;3.58;;;2.65;;
22240;SDS011;11289;52.524;13.694;2023-06-22T08:45:42;3.95;;;3.03;;
22240;SDS011;11289;52.524;13.694;2023-06-22T08:48:08;3.53;;;2.63;;
22240;SDS011;11289;52.524;13.694;2023-06-22T08:50:34;6.95;;;2.40;;
22240;SDS011;11289;52.524;13.694;2023-06-22T08:53:00;5.57;;;2.65;;
22240;SDS011;11289;52.524;13.694;2023-06-22T08:55:26;3.10;;;2.58;;
22240;SDS011;11289;52.524;13.694;2023-06-22T08:57:52;3.78;;;2.30;;
22240;SDS011;11289;52.524;13.694;2023-06-22T09:00:18;3.92;;;2.38;;
22240;SDS011;11289;52.524;13.694;2023-06-22T09:02:46;4.22;;;2.70;;
22240;SDS011;11289;52.524;13.694;2023-06-22T09:05:13;3.22;;;2.40;;
22240;SDS011;11289;52.524;13.694;2023-06-22T09:07:39;4.05;;;2.55;;
22240;SDS011;11289;52.524;13.694;2023-06-22T09:10:06;3.80;;;2.40;;
22240;SDS011;11289;52.524;13.694;2023-06-22T09:12:32;5.88;;;2.33;;
22240;SDS011;11289;52.524;13.694;2023-06-22T09:14:59;5.85;;;2.90;;
22240;SDS011;11289;52.524;13.694;2023-06-22T09:17:26;3.70;;;2.38;;
22240;SDS011;11289;52.524;13.694;2023-06-22T09:19:53;2.30;;;2.03;;
22240;SDS011;11289;52.524;13.694;2023-06-22T09:22:19;4.78;;;2.55;;
22240;SDS011;11289;52.524;13.694;2023-06-22T09:24:45;3.22;;;2.10;;
22240;SDS011;11289;52.524;13.694;2023-06-22T09:27:11;3.85;;;2.28;;
22240;SDS011;11289;52.524;13.694;2023-06-22T09:29:37;3.72;;;2.15;;
22240;SDS011;11289;52.524;13.694;2023-06-22T09:32:03;5.05;;;2.55;;
22240;SDS011;11289;52.524;13.694;2023-06-22T09:34:29;4.15;;;2.38;;
22240;SDS011;11289;52.524;13.694;2023-06-22T09:36:57;3.22;;;2.28;;
22240;SDS011;11289;52.524;13.694;2023-06-22T09:39:26;4.50;;;2.03;;
22240;SDS011;11289;52.524;13.694;2023-06-22T09:41:52;4.57;;;2.00;;
22240;SDS011;11289;52.524;13.694;2023-06-22T09:44:18;3.22;;;2.08;;
22240;SDS011;11289;52.524;13.694;2023-06-22T09:46:44;3.42;;;2.45;;
22240;SDS011;11289;52.524;13.694;2023-06-22T09:49:10;3.35;;;2.35;;
22240;SDS011;11289;52.524;13.694;2023-06-22T09:51:36;2.80;;;2.00;;
22240;SDS011;11289;52.524;13.694;2023-06-22T09:54:02;4.13;;;2.28;;
22240;SDS011;11289;52.524;13.694;2023-06-22T09:56:28;3.15;;;2.00;;
22240;SDS011;11289;52.524;13.694;2023-06-22T09:58:55;5.13;;;1.80;;
22240;SDS011;11289;52.524;13.694;2023-06-22T10:01:21;3.95;;;2.15;;
22240;SDS011;11289;52.524;13.694;2023-06-22T10:03:48;4.35;;;2.90;;
22240;SDS011;11289;52.524;13.694;2023-06-22T10:06:14;4.35;;;2.20;;
22240;SDS011;11289;52.524;13.694;2023-06-22T10:08:40;4.20;;;2.72;;
22240;SDS011;11289;52.524;13.694;2023-06-22T10:11:06;7.55;;;2.53;;
22240;SDS011;11289;52.524;13.694;2023-06-22T10:13:32;3.08;;;2.30;;
22240;SDS011;11289;52.524;13.694;2023-06-22T10:15:58;5.78;;;2.25;;
22240;SDS011;11289;52.524;13.694;2023-06-22T10:18:24;4.30;;;2.38;;
22240;SDS011;11289;52.524;13.694;2023-06-22T10:20:50;5.15;;;2.80;;
22240;SDS011;11289;52.524;13.694;2023-06-22T10:23:18;5.53;;;2.70;;
22240;SDS011;11289;52.524;13.694;2023-06-22T10:25:44;4.30;;;2.65;;
22240;SDS011;11289;52.524;13.694;2023-06-22T10:28:11;4.63;;;2.28;;
22240;SDS011;11289;52.524;13.694;2023-06-22T10:30:38;3.72;;;2.30;;
22240;SDS011;11289;52.524;13.694;2023-06-22T10:33:07;4.45;;;2.30;;
22240;SDS011;11289;52.524;13.694;2023-06-22T10:35:34;3.55;;;2.22;;
22240;SDS011;11289;52.524;13.694;2023-06-22T10:38:18;3.63;;;2.33;;
22240;SDS011;11289;52.524;13.694;2023-06-22T10:40:44;4.25;;;2.28;;
22240;SDS011;11289;52.524;13.694;2023-06-22T10:43:11;4.18;;;2.40;;
22240;SDS011;11289;52.524;13.694;2023-06-22T10:45:37;3.47;;;1.88;;
22240;SDS011;11289;52.524;13.694;2023-06-22T10:48:03;4.20;;;2.05;;
22240;SDS011;11289;52.524;13.694;2023-06-22T10:50:29;3.90;;;2.58;;
22240;SDS011;11289;52.524;13.694;2023-06-22T10:52:55;4.07;;;1.75;;
22240;SDS011;11289;52.524;13.694;2023-06-22T10:55:21;2.97;;;2.17;;
22240;SDS011;11289;52.524;13.694;2023-06-22T10:57:47;2.47;;;1.67;;
22240;SDS011;11289;52.524;13.694;2023-06-22T11:00:14;3.22;;;2.25;;
22240;SDS011;11289;52.524;13.694;2023-06-22T11:02:41;4.70;;;2.33;;
22240;SDS011;11289;52.524;13.694;2023-06-22T11:05:07;4.28;;;2.15;;
22240;SDS011;11289;52.524;13.694;2023-06-22T11:07:33;4.13;;;2.42;;
22240;SDS011;11289;52.524;13.694;2023-06-22T11:09:59;3.15;;;2.13;;
22240;SDS011;11289;52.524;13.694;2023-06-22T11:12:25;3.15;;;1.85;;
22240;SDS011;11289;52.524;13.694;2023-06-22T11:14:51;3.33;;;2.45;;
22240;SDS011;11289;52.524;13.694;2023-06-22T11:17:17;5.45;;;2.30;;
22240;SDS011;11289;52.524;13.694;2023-06-22T11:19:44;3.17;;;2.30;;
22240;SDS011;11289;52.524;13.694;2023-06-22T11:22:10;3.55;;;2.45;;
22240;SDS011;11289;52.524;13.694;2023-06-22T11:24:36;3.00;;;2.28;;
22240;SDS011;11289;52.524;13.694;2023-06-22T11:27:02;3.75;;;2.58;;
22240;SDS011;11289;52.524;13.694;2023-06-22T11:29:28;4.72;;;2.25;;
22240;SDS011;11289;52.524;13.694;2023-06-22T11:31:54;3.80;;;1.98;;
22240;SDS011;11289;52.524;13.694;2023-06-22T11:34:20;5.20;;;2.40;;
22240;SDS011;11289;52.524;13.694;2023-06-22T11:36:46;5.57;;;2.47;;
22240;SDS011;11289;52.524;13.694;2023-06-22T11:39:13;3.58;;;2.50;;
22240;SDS011;11289;52.524;13.694;2023-06-22T11:41:40;7.03;;;2.35;;
22240;SDS011;11289;52.524;13.694;2023-06-22T11:44:07;3.58;;;2.00;;
22240;SDS011;11289;52.524;13.694;2023-06-22T11:46:33;4.28;;;2.45;;
22240;SDS011;11289;52.524;13.694;2023-06-22T11:49:00;3.47;;;2.60;;
22240;SDS011;11289;52.524;13.694;2023-06-22T11:51:27;3.55;;;2.47;;
22240;SDS011;11289;52.524;13.694;2023-06-22T11:53:53;3.17;;;2.50;;
22240;SDS011;11289;52.524;13.694;2023-06-22T11:56:19;4.32;;;2.38;;
22240;SDS011;11289;52.524;13.694;2023-06-22T11:58:45;8.02;;;2.38;;
22240;SDS011;11289;52.524;13.694;2023-06-22T12:01:11;3.28;;;2.17;;
22240;SDS011;11289;52.524;13.694;2023-06-22T12:03:40;3.00;;;2.50;;
22240;SDS011;11289;52.524;13.694;2023-06-22T12:06:09;4.70;;;2.25;;
22240;SDS011;11289;52.524;13.694;2023-06-22T12:08:35;3.00;;;2.45;;
22240;SDS011;11289;52.524;13.694;2023-06-22T12:11:01;4.57;;;2.70;;
22240;SDS011;11289;52.524;13.694;2023-06-22T12:13:27;4.63;;;3.22;;
22240;SDS011;11289;52.524;13.694;2023-06-22T12:15:53;3.33;;;2.92;;
22240;SDS011;11289;52.524;13.694;2023-06-22T12:18:19;3.42;;;2.50;;
22240;SDS011;11289;52.524;13.694;2023-06-22T12:20:47;5.22;;;2.78;;
22240;SDS011;11289;52.524;13.694;2023-06-22T12:23:14;3.92;;;2.50;;
22240;SDS011;11289;52.524;13.694;2023-06-22T12:25:40;4.03;;;3.05;;
22240;SDS011;11289;52.524;13.694;2023-06-22T12:28:06;3.35;;;2.67;;
22240;SDS011;11289;52.524;13.694;2023-06-22T12:30:32;5.28;;;2.80;;
22240;SDS011;11289;52.524;13.694;2023-06-22T12:32:59;3.35;;;2.70;;
22240;SDS011;11289;52.524;13.694;2023-06-22T12:35:25;4.68;;;3.25;;
22240;SDS011;11289;52.524;13.694;2023-06-22T12:37:51;3.67;;;2.97;;
22240;SDS011;11289;52.524;13.694;2023-06-22T12:40:17;4.55;;;3.55;;
22240;SDS011;11289;52.524;13.694;2023-06-22T12:42:44;3.97;;;3.15;;
22240;SDS011;11289;52.524;13.694;2023-06-22T12:45:10;5.25;;;3.78;;
22240;SDS011;11289;52.524;13.694;2023-06-22T12:47:54;4.60;;;3.42;;
22240;SDS011;11289;52.524;13.694;2023-06-22T12:50:20;3.70;;;2.58;;
22240;SDS011;11289;52.524;13.694;2023-06-22T12:52:46;4.93;;;3.35;;
22240;SDS011;11289;52.524;13.694;2023-06-22T12:55:12;6.20;;;4.00;;
22240;SDS011;11289;52.524;13.694;2023-06-22T12:57:38;4.32;;;3.63;;
22240;SDS011;11289;52.524;13.694;2023-06-22T13:00:04;4.55;;;3.10;;
22240;SDS011;11289;52.524;13.694;2023-06-22T13:02:33;4.82;;;3.08;;
22240;SDS011;11289;52.524;13.694;2023-06-22T13:04:59;7.35;;;3.33;;
22240;SDS011;11289;52.524;13.694;2023-06-22T13:07:25;3.28;;;2.97;;
22240;SDS011;11289;52.524;13.694;2023-06-22T13:09:51;5.80;;;3.40;;
22240;SDS011;11289;52.524;13.694;2023-06-22T13:12:17;4.72;;;3.03;;
22240;SDS011;11289;52.524;13.694;2023-06-22T13:14:45;4.47;;;3.15;;
22240;SDS011;11289;52.524;13.694;2023-06-22T13:17:12;4.85;;;3.33;;
22240;SDS011;11289;52.524;13.694;2023-06-22T13:19:39;4.97;;;3.08;;
22240;SDS011;11289;52.524;13.694;2023-06-22T13:22:09;4.45;;;3.35;;
22240;SDS011;11289;52.524;13.694;2023-06-22T13:24:55;3.65;;;2.88;;
22240;SDS011;11289;52.524;13.694;2023-06-22T13:27:21;4.10;;;3.20;;
22240;SDS011;11289;52.524;13.694;2023-06-22T13:29:48;3.47;;;3.13;;
22240;SDS011;11289;52.524;13.694;2023-06-22T13:32:14;4.20;;;2.80;;
22240;SDS011;11289;52.524;13.694;2023-06-22T13:34:40;4.05;;;3.15;;
22240;SDS011;11289;52.524;13.694;2023-06-22T13:37:06;4.47;;;3.15;;
22240;SDS011;11289;52.524;13.694;2023-06-22T13:39:31;4.68;;;3.85;;
22240;SDS011;11289;52.524;13.694;2023-06-22T13:41:58;3.38;;;3.08;;
22240;SDS011;11289;52.524;13.694;2023-06-22T13:44:24;3.70;;;3.38;;
22240;SDS011;11289;52.524;13.694;2023-06-22T13:46:54;3.92;;;2.88;;
22240;SDS011;11289;52.524;13.694;2023-06-22T13:49:20;3.25;;;2.70;;
22240;SDS011;11289;52.524;13.694;2023-06-22T13:51:47;3.80;;;3.40;;
22240;SDS011;11289;52.524;13.694;2023-06-22T13:54:16;3.78;;;3.28;;
22240;SDS011;11289;52.524;13.694;2023-06-22T13:56:42;3.45;;;2.90;;
22240;SDS011;11289;52.524;13.694;2023-06-22T13:59:08;4.78;;;3.55;;
22240;SDS011;11289;52.524;13.694;2023-06-22T14:01:37;4.28;;;3.42;;
22240;SDS011;11289;52.524;13.694;2023-06-22T14:04:05;4.70;;;3.47;;
22240;SDS011;11289;52.524;13.694;2023-06-22T14:06:31;4.93;;;3.80;;
22240;SDS011;11289;52.524;13.694;2023-06-22T14:08:57;5.28;;;3.80;;
22240;SDS011;11289;52.524;13.694;2023-06-22T14:11:24;3.13;;;2.83;;
22240;SDS011;11289;52.524;13.694;2023-06-22T14:13:50;4.80;;;3.20;;
22240;SDS011;11289;52.524;13.694;2023-06-22T14:16:16;4.88;;;2.88;;
22240;SDS011;11289;52.524;13.694;2023-06-22T14:18:42;5.10;;;3.60;;
22240;SDS011;11289;52.524;13.694;2023-06-22T14:21:08;3.75;;;3.15;;
22240;SDS011;11289;52.524;13.694;2023-06-22T14:23:34;4.25;;;3.33;;
22240;SDS011;11289;52.524;13.694;2023-06-22T14:26:00;5.43;;;3.38;;
22240;SDS011;11289;52.524;13.694;2023-06-22T14:28:26;6.18;;;3.83;;
22240;SDS011;11289;52.524;13.694;2023-06-22T14:30:52;4.10;;;3.70;;
22240;SDS011;11289;52.524;13.694;2023-06-22T14:33:18;3.80;;;3.40;;
22240;SDS011;11289;52.524;13.694;2023-06-22T14:35:45;4.50;;;3.17;;
22240;SDS011;11289;52.524;13.694;2023-06-22T14:38:11;4.43;;;3.58;;
22240;SDS011;11289;52.524;13.694;2023-06-22T14:40:36;4.35;;;3.95;;